Time;durP1;ratioP1;P1;durP2;ratioP2;P2;SDS_P1;SDS_P2;PMS_P1;PMS_P2;Temp;Humidity;BMP_temperature;BMP_pressure;BME280_temperature;BME280_humidity;BME280_pressure;Samples;Min_cycle;Max_cycle;Signal;HPM_P1;HPM_P2
2023/07/16 00:01:09;;;;;;;2.72;1.13;;;;;24.00;100681.00;;;;5001148;28;20201;-80
2023/07/16 00:03:36;;;;;;;2.63;1.20;;;;;23.90;100677.00;;;;5002739;28;20193;-81
2023/07/16 00:06:03;;;;;;;6.13;1.08;;;;;23.90;100675.00;;;;4993305;28;20204;-80
2023/07/16 00:08:32;;;;;;;3.47;1.33;;;;;23.90;100678.00;;;;5006434;28;20201;-81
2023/07/16 00:10:59;;;;;;;4.28;0.75;;;;;23.90;100682.00;;;;4988679;28;20233;-81
2023/07/16 00:13:27;;;;;;;3.38;1.20;;;;;23.90;100682.00;;;;5001097;28;20205;-80
2023/07/16 00:15:54;;;;;;;5.18;1.45;;;;;23.90;100680.00;;;;5028331;28;20192;-81
2023/07/16 00:18:22;;;;;;;8.18;1.00;;;;;23.90;100676.00;;;;5002778;28;20209;-81
2023/07/16 00:20:49;;;;;;;5.82;1.48;;;;;23.90;100676.00;;;;5001927;28;20205;-80
2023/07/16 00:23:16;;;;;;;3.15;0.98;;;;;23.90;100679.00;;;;4990291;28;20212;-81
2023/07/16 00:25:45;;;;;;;5.53;1.17;;;;;23.90;100684.00;;;;5007029;28;20201;-80
2023/07/16 00:28:13;;;;;;;3.03;0.90;;;;;23.90;100677.00;;;;5007132;28;20208;-81
2023/07/16 00:30:40;;;;;;;4.45;1.40;;;;;23.90;100685.00;;;;5012672;28;20229;-80
2023/07/16 00:33:08;;;;;;;2.40;1.20;;;;;23.90;100684.00;;;;5000462;28;20726;-81
2023/07/16 00:35:35;;;;;;;3.35;1.10;;;;;23.90;100683.00;;;;5000750;28;20255;-81
2023/07/16 00:38:02;;;;;;;2.97;1.05;;;;;23.80;100686.00;;;;4996390;28;20236;-81
2023/07/16 00:40:30;;;;;;;2.97;1.08;;;;;23.80;100693.00;;;;5007312;28;20208;-80
2023/07/16 00:42:58;;;;;;;3.92;1.23;;;;;23.80;100689.00;;;;5003109;28;20192;-80
2023/07/16 00:45:26;;;;;;;3.55;1.15;;;;;23.80;100685.00;;;;4998470;28;20319;-80
2023/07/16 00:47:53;;;;;;;5.50;1.20;;;;;23.80;100696.00;;;;5005294;28;20204;-80
2023/07/16 00:50:21;;;;;;;3.42;1.20;;;;;23.80;100697.00;;;;4995490;28;20227;-80
2023/07/16 00:52:48;;;;;;;2.50;1.27;;;;;23.80;100690.00;;;;5005363;28;20226;-80
2023/07/16 00:55:16;;;;;;;2.20;1.20;;;;;23.80;100701.00;;;;5002762;28;20223;-81
2023/07/16 00:57:44;;;;;;;2.47;1.10;;;;;23.80;100698.00;;;;4992137;28;20205;-81
2023/07/16 01:00:13;;;;;;;5.28;1.08;;;;;23.80;100698.00;;;;4983874;28;20233;-80
2023/07/16 01:02:41;;;;;;;3.95;1.30;;;;;23.80;100707.00;;;;4988376;28;20210;-80
2023/07/16 01:05:09;;;;;;;3.72;1.05;;;;;23.70;100701.00;;;;4992777;28;20225;-81
2023/07/16 01:07:38;;;;;;;1.30;0.95;;;;;23.70;100693.00;;;;5007195;28;20733;-80
2023/07/16 01:10:06;;;;;;;3.45;1.30;;;;;23.70;100702.00;;;;4991218;28;20555;-80
2023/07/16 01:12:34;;;;;;;2.85;1.08;;;;;23.70;100695.00;;;;4982005;28;20701;-81
2023/07/16 01:15:01;;;;;;;3.20;1.33;;;;;23.70;100704.00;;;;4991766;28;20189;-81
2023/07/16 01:17:30;;;;;;;2.80;1.15;;;;;23.60;100698.00;;;;5003070;28;20227;-80
2023/07/16 01:19:57;;;;;;;2.45;1.20;;;;;23.60;100697.00;;;;5007535;28;20537;-81
2023/07/16 01:22:43;;;;;;;6.65;1.50;;;;;23.50;100693.00;;;;4998390;28;20205;-80
2023/07/16 01:25:49;;;;;;;3.15;1.17;;;;;23.50;100699.00;;;;5001735;28;20204;-80
2023/07/16 01:28:49;;;;;;;5.93;1.92;;;;;23.40;100689.00;;;;4986817;28;20216;-81
2023/07/16 01:31:21;;;;;;;4.03;1.73;;;;;23.50;100683.00;;;;4989044;28;20229;-81
2023/07/16 01:33:49;;;;;;;3.45;1.40;;;;;23.60;100686.00;;;;5002625;28;20200;-80
2023/07/16 01:36:18;;;;;;;3.75;1.38;;;;;23.50;100680.00;;;;5006111;28;20718;-81
2023/07/16 01:38:47;;;;;;;4.63;1.45;;;;;23.50;100687.00;;;;5023430;28;20208;-82
2023/07/16 01:41:14;;;;;;;4.53;1.45;;;;;23.50;100685.00;;;;5026539;28;20211;-81
2023/07/16 01:43:42;;;;;;;6.70;1.42;;;;;23.50;100690.00;;;;4994748;28;20201;-81
2023/07/16 01:46:09;;;;;;;8.10;1.90;;;;;23.50;100685.00;;;;4993943;28;20194;-80
2023/07/16 01:48:39;;;;;;;6.97;1.92;;;;;23.40;100691.00;;;;5007657;28;20204;-80
2023/07/16 01:51:06;;;;;;;2.40;1.80;;;;;23.50;100686.00;;;;5000092;28;20768;-81
2023/07/16 01:53:34;;;;;;;5.57;1.50;;;;;23.50;100685.00;;;;5000481;28;20205;-80
2023/07/16 01:56:03;;;;;;;4.50;1.73;;;;;23.40;100687.00;;;;4996227;28;20209;-80
2023/07/16 01:58:30;;;;;;;6.63;2.13;;;;;23.40;100682.00;;;;4991575;28;20217;-81
2023/07/16 02:00:57;;;;;;;4.22;1.90;;;;;23.40;100684.00;;;;4993994;28;20236;-81
2023/07/16 02:03:25;;;;;;;3.13;1.50;;;;;23.40;100684.00;;;;4993047;28;20307;-81
2023/07/16 02:05:53;;;;;;;2.53;1.52;;;;;23.40;100683.00;;;;4997867;28;20202;-80
2023/07/16 02:08:21;;;;;;;2.50;1.13;;;;;23.40;100691.00;;;;4994808;28;20292;-80
2023/07/16 02:10:49;;;;;;;3.60;2.08;;;;;23.40;100690.00;;;;5010121;28;20225;-82
2023/07/16 02:13:16;;;;;;;3.25;2.00;;;;;23.40;100700.00;;;;5006288;28;20576;-80
2023/07/16 02:15:44;;;;;;;4.30;1.95;;;;;23.40;100693.00;;;;5002488;28;20202;-81
2023/07/16 02:18:11;;;;;;;4.35;1.60;;;;;23.40;100692.00;;;;4991179;28;20201;-80
2023/07/16 02:20:39;;;;;;;4.95;1.98;;;;;23.40;100694.00;;;;4983574;28;20705;-80
2023/07/16 02:23:07;;;;;;;4.43;1.95;;;;;23.40;100696.00;;;;4990801;28;20213;-81
2023/07/16 02:25:35;;;;;;;4.63;1.83;;;;;23.40;100687.00;;;;5007990;28;20220;-81
2023/07/16 02:28:02;;;;;;;5.78;2.05;;;;;23.40;100691.00;;;;5007438;28;20209;-81
2023/07/16 02:30:29;;;;;;;6.38;1.95;;;;;23.30;100688.00;;;;4997005;28;20686;-80
2023/07/16 02:32:57;;;;;;;2.95;1.52;;;;;23.30;100690.00;;;;4999188;28;20189;-81
2023/07/16 02:35:24;;;;;;;8.85;1.58;;;;;23.30;100693.00;;;;4988318;28;20202;-79
2023/07/16 02:37:51;;;;;;;5.28;1.60;;;;;23.30;100692.00;;;;5003941;28;20663;-80
2023/07/16 02:40:20;;;;;;;6.03;2.00;;;;;23.30;100698.00;;;;5008900;28;20196;-80
2023/07/16 02:42:47;;;;;;;3.72;2.42;;;;;23.30;100689.00;;;;5000400;28;20217;-80
2023/07/16 02:45:14;;;;;;;4.70;1.73;;;;;23.30;100692.00;;;;5002611;28;20205;-80
2023/07/16 02:47:43;;;;;;;3.22;1.55;;;;;23.30;100691.00;;;;5003987;28;20193;-80
2023/07/16 02:50:11;;;;;;;7.22;2.10;;;;;23.30;100698.00;;;;5001434;28;20205;-80
2023/07/16 02:52:38;;;;;;;5.68;1.95;;;;;23.30;100692.00;;;;4993781;28;20225;-81
2023/07/16 02:55:06;;;;;;;3.10;1.63;;;;;23.30;100696.00;;;;5007448;28;20201;-81
2023/07/16 02:57:35;;;;;;;3.05;1.58;;;;;23.30;100696.00;;;;5005762;28;20198;-81
2023/07/16 03:00:02;;;;;;;2.75;1.50;;;;;23.30;100695.00;;;;4994940;28;20229;-81
2023/07/16 03:02:30;;;;;;;3.63;1.50;;;;;23.30;100695.00;;;;5002234;28;20224;-80
2023/07/16 03:04:57;;;;;;;3.10;1.65;;;;;23.30;100706.00;;;;5006824;28;20204;-80
2023/07/16 03:07:24;;;;;;;4.75;1.85;;;;;23.30;100704.00;;;;5003727;28;20212;-80
2023/07/16 03:09:52;;;;;;;4.40;1.70;;;;;23.30;100706.00;;;;4985421;28;20201;-82
2023/07/16 03:12:19;;;;;;;5.18;1.95;;;;;23.30;100702.00;;;;5004730;28;20239;-80
2023/07/16 03:14:48;;;;;;;3.55;1.40;;;;;23.30;100705.00;;;;4996136;28;20201;-81
2023/07/16 03:17:15;;;;;;;3.10;1.30;;;;;23.30;100703.00;;;;4992049;28;20747;-80
2023/07/16 03:19:42;;;;;;;9.52;2.33;;;;;23.30;100706.00;;;;5002483;28;20201;-81
2023/07/16 03:22:09;;;;;;;6.60;2.47;;;;;23.30;100707.00;;;;5014160;28;20200;-81
2023/07/16 03:24:37;;;;;;;4.43;1.83;;;;;23.30;100706.00;;;;5007904;28;20209;-80
2023/07/16 03:27:04;;;;;;;4.60;1.83;;;;;23.20;100706.00;;;;5008821;28;20208;-80
2023/07/16 03:29:34;;;;;;;5.13;2.15;;;;;23.20;100709.00;;;;5007187;28;21128;-80
2023/07/16 03:32:03;;;;;;;3.47;1.63;;;;;23.20;100708.00;;;;5008971;28;20225;-81
2023/07/16 03:34:30;;;;;;;2.92;1.55;;;;;23.20;100709.00;;;;5006209;28;20599;-80
2023/07/16 03:36:58;;;;;;;4.18;1.60;;;;;23.20;100714.00;;;;5004525;28;20201;-79
2023/07/16 03:39:25;;;;;;;4.72;1.88;;;;;23.20;100720.00;;;;5009221;28;20211;-80
2023/07/16 03:41:52;;;;;;;3.15;1.83;;;;;23.20;100716.00;;;;5008657;28;20193;-80
2023/07/16 03:44:19;;;;;;;4.10;1.52;;;;;23.10;100729.00;;;;5008140;28;20210;-81
2023/07/16 03:46:47;;;;;;;4.65;1.83;;;;;23.10;100721.00;;;;4996073;28;20201;-82
2023/07/16 03:49:15;;;;;;;4.88;1.60;;;;;23.10;100729.00;;;;4998715;28;20209;-80
2023/07/16 03:51:42;;;;;;;1.65;1.13;;;;;23.10;100734.00;;;;5008426;28;20232;-81
2023/07/16 03:54:10;;;;;;;4.55;1.52;;;;;23.10;100731.00;;;;4999703;28;20201;-80
2023/07/16 03:56:37;;;;;;;3.30;1.27;;;;;23.10;100739.00;;;;5000171;28;20570;-80
2023/07/16 03:59:04;;;;;;;3.25;1.63;;;;;23.10;100742.00;;;;4993653;28;20238;-81
2023/07/16 04:01:31;;;;;;;5.88;1.88;;;;;23.10;100750.00;;;;5007267;28;20201;-82
2023/07/16 04:03:59;;;;;;;3.83;2.00;;;;;23.00;100749.00;;;;5000627;28;21120;-80
2023/07/16 04:06:27;;;;;;;5.07;2.28;;;;;23.00;100757.00;;;;5001508;28;20197;-80
2023/07/16 04:08:55;;;;;;;6.47;1.98;;;;;23.00;100751.00;;;;5001926;28;20202;-81
2023/07/16 04:11:22;;;;;;;3.35;1.95;;;;;23.00;100742.00;;;;4993433;28;20232;-79
2023/07/16 04:13:49;;;;;;;4.15;2.15;;;;;23.00;100746.00;;;;5004451;28;20204;-80
2023/07/16 04:16:19;;;;;;;6.03;2.15;;;;;22.90;100753.00;;;;5004793;28;20214;-79
2023/07/16 04:18:46;;;;;;;4.97;2.70;;;;;23.00;100761.00;;;;4996444;28;20189;-81
2023/07/16 04:21:14;;;;;;;6.28;1.98;;;;;22.90;100754.00;;;;4998778;28;20202;-80
2023/07/16 04:23:43;;;;;;;4.47;2.08;;;;;22.90;100770.00;;;;4990520;28;20208;-81
2023/07/16 04:26:10;;;;;;;7.47;1.98;;;;;22.90;100770.00;;;;5007181;28;20204;-80
2023/07/16 04:28:39;;;;;;;4.18;2.38;;;;;22.90;100766.00;;;;5008689;28;20188;-81
2023/07/16 04:31:06;;;;;;;4.57;2.08;;;;;22.90;100769.00;;;;4995823;28;20209;-81
2023/07/16 04:33:33;;;;;;;6.40;2.20;;;;;22.90;100778.00;;;;4998335;28;20205;-80
2023/07/16 04:36:00;;;;;;;7.45;2.17;;;;;22.90;100776.00;;;;5000089;28;20201;-80
2023/07/16 04:38:28;;;;;;;3.30;2.00;;;;;22.90;100772.00;;;;5007054;28;20192;-81
2023/07/16 04:40:56;;;;;;;6.63;2.35;;;;;22.90;100777.00;;;;4998231;28;20193;-80
2023/07/16 04:43:24;;;;;;;5.20;2.40;;;;;23.00;100776.00;;;;5008607;28;20208;-81
2023/07/16 04:45:51;;;;;;;5.50;2.00;;;;;22.90;100771.00;;;;5005113;28;20201;-80
2023/07/16 04:48:19;;;;;;;4.60;2.25;;;;;23.00;100776.00;;;;5019770;28;20217;-81
2023/07/16 04:50:46;;;;;;;5.88;1.92;;;;;23.00;100786.00;;;;5003884;28;20293;-80
2023/07/16 04:53:14;;;;;;;3.78;1.90;;;;;23.00;100792.00;;;;5006837;28;20224;-81
2023/07/16 04:55:41;;;;;;;4.15;1.75;;;;;23.00;100794.00;;;;4989053;28;20197;-80
2023/07/16 04:58:14;;;;;;;2.65;1.80;;;;;23.00;100791.00;;;;4993159;28;20220;-80
2023/07/16 05:00:42;;;;;;;3.30;1.83;;;;;23.00;100789.00;;;;4994583;28;20607;-81
2023/07/16 05:03:10;;;;;;;4.40;1.83;;;;;23.10;100797.00;;;;5006370;28;20280;-81
2023/07/16 05:05:37;;;;;;;4.05;2.03;;;;;23.10;100792.00;;;;5007970;28;20201;-80
2023/07/16 05:08:04;;;;;;;2.65;1.92;;;;;23.10;100801.00;;;;5006706;28;20201;-80
2023/07/16 05:10:32;;;;;;;3.50;2.30;;;;;23.10;100807.00;;;;5002416;28;20551;-81
2023/07/16 05:12:59;;;;;;;2.97;1.80;;;;;23.10;100798.00;;;;4998151;28;20225;-81
2023/07/16 05:15:28;;;;;;;7.45;2.70;;;;;23.10;100799.00;;;;5000041;28;20956;-80
2023/07/16 05:17:57;;;;;;;3.05;2.05;;;;;23.20;100798.00;;;;4994210;28;20209;-80
2023/07/16 05:20:24;;;;;;;4.38;2.00;;;;;23.20;100802.00;;;;4998478;28;20289;-80
2023/07/16 05:22:52;;;;;;;3.30;1.95;;;;;23.20;100788.00;;;;5007223;28;20204;-80
2023/07/16 05:25:19;;;;;;;6.32;2.10;;;;;23.30;100797.00;;;;5004753;28;20228;-80
2023/07/16 05:27:47;;;;;;;4.60;2.42;;;;;23.30;100801.00;;;;5003241;28;20205;-81
2023/07/16 05:30:14;;;;;;;3.13;2.40;;;;;23.30;100805.00;;;;5006760;28;20201;-80
2023/07/16 05:32:43;;;;;;;7.15;2.45;;;;;23.40;100806.00;;;;5006568;28;20228;-81
2023/07/16 05:35:10;;;;;;;3.40;1.83;;;;;23.40;100811.00;;;;5006844;28;20245;-81
2023/07/16 05:37:38;;;;;;;3.55;2.35;;;;;23.40;100821.00;;;;5006973;28;20204;-81
2023/07/16 05:40:08;;;;;;;5.25;3.03;;;;;23.50;100815.00;;;;5008499;28;20204;-81
2023/07/16 05:42:35;;;;;;;5.05;2.65;;;;;23.50;100821.00;;;;5019501;28;20219;-80
2023/07/16 05:45:03;;;;;;;3.38;2.40;;;;;23.50;100832.00;;;;5014513;28;20189;-80
2023/07/16 05:47:30;;;;;;;6.05;2.15;;;;;23.50;100836.00;;;;5010047;28;20211;-82
2023/07/16 05:49:59;;;;;;;5.95;2.38;;;;;23.60;100846.00;;;;5011285;28;20208;-79
2023/07/16 05:52:32;;;;;;;3.70;2.30;;;;;23.50;100846.00;;;;5011115;28;20224;-81
2023/07/16 05:55:00;;;;;;;4.30;2.42;;;;;23.60;100844.00;;;;5008742;28;20197;-80
2023/07/16 05:57:27;;;;;;;7.80;3.30;;;;;23.70;100846.00;;;;5010388;28;20205;-81
2023/07/16 05:59:54;;;;;;;4.18;2.70;;;;;23.70;100855.00;;;;4987818;28;20253;-81
2023/07/16 06:02:21;;;;;;;4.75;2.40;;;;;23.70;100857.00;;;;4991308;28;20217;-80
2023/07/16 06:04:49;;;;;;;3.33;2.47;;;;;23.80;100858.00;;;;4987298;28;20681;-80
2023/07/16 06:07:17;;;;;;;3.83;2.58;;;;;23.80;100862.00;;;;4990448;28;20213;-80
2023/07/16 06:09:45;;;;;;;2.95;2.40;;;;;23.80;100869.00;;;;4986829;28;20248;-80
2023/07/16 06:12:12;;;;;;;5.30;2.65;;;;;23.90;100866.00;;;;4990590;28;20220;-79
2023/07/16 06:14:39;;;;;;;4.82;2.80;;;;;23.90;100868.00;;;;4987288;28;20202;-81
2023/07/16 06:17:06;;;;;;;4.32;2.65;;;;;24.00;100869.00;;;;4991234;28;20470;-80
2023/07/16 06:19:34;;;;;;;4.57;2.90;;;;;24.00;100866.00;;;;4985401;28;20209;-80
2023/07/16 06:22:01;;;;;;;7.20;2.90;;;;;24.00;100858.00;;;;4984450;28;20206;-81
2023/07/16 06:24:30;;;;;;;4.55;2.78;;;;;24.10;100864.00;;;;4987208;28;20202;-81
2023/07/16 06:26:57;;;;;;;3.85;2.13;;;;;24.10;100862.00;;;;4988728;28;20213;-80
2023/07/16 06:29:24;;;;;;;5.93;3.00;;;;;24.10;100864.00;;;;4990087;28;20190;-81
2023/07/16 06:31:59;;;;;;;4.53;2.42;;;;;24.10;100881.00;;;;4990337;28;20217;-81
2023/07/16 06:34:26;;;;;;;4.10;2.92;;;;;24.20;100879.00;;;;4987178;28;20193;-80
2023/07/16 06:36:53;;;;;;;3.78;2.45;;;;;24.30;100869.00;;;;4986419;28;20201;-80
2023/07/16 06:39:21;;;;;;;4.78;2.95;;;;;24.30;100872.00;;;;4979063;28;20201;-82
2023/07/16 06:41:50;;;;;;;4.97;3.05;;;;;24.30;100879.00;;;;4988452;28;20202;-79
2023/07/16 06:44:17;;;;;;;7.18;2.97;;;;;24.40;100878.00;;;;4988582;28;20205;-82
2023/07/16 06:46:44;;;;;;;6.38;3.33;;;;;24.50;100887.00;;;;4985977;28;20210;-81
2023/07/16 06:49:12;;;;;;;4.32;2.92;;;;;24.50;100879.00;;;;4986061;28;20205;-80
2023/07/16 06:51:39;;;;;;;6.30;3.20;;;;;24.50;100876.00;;;;4989823;28;20213;-79
2023/07/16 06:54:07;;;;;;;5.07;3.00;;;;;24.60;100870.00;;;;4992968;28;20217;-81
2023/07/16 06:56:34;;;;;;;4.63;3.20;;;;;24.60;100874.00;;;;4991291;28;20281;-81
2023/07/16 06:59:03;;;;;;;6.80;3.40;;;;;24.60;100886.00;;;;4989051;28;20233;-80
2023/07/16 07:01:31;;;;;;;6.32;2.70;;;;;24.70;100887.00;;;;5008744;28;20205;-81
2023/07/16 07:03:58;;;;;;;4.22;2.63;;;;;24.80;100897.00;;;;5011432;28;20205;-80
2023/07/16 07:06:25;;;;;;;5.15;2.95;;;;;24.80;100890.00;;;;5010983;28;20197;-80
2023/07/16 07:08:52;;;;;;;5.43;3.13;;;;;24.80;100911.00;;;;5012418;28;20200;-79
2023/07/16 07:11:20;;;;;;;5.03;2.60;;;;;24.90;100903.00;;;;5022399;28;20200;-83
2023/07/16 07:13:47;;;;;;;4.60;2.88;;;;;24.90;100904.00;;;;5010914;28;20232;-80
2023/07/16 07:16:15;;;;;;;5.10;3.17;;;;;24.90;100913.00;;;;5011393;28;20205;-79
2023/07/16 07:18:44;;;;;;;5.00;2.60;;;;;24.90;100916.00;;;;5017295;28;20197;-83
2023/07/16 07:21:11;;;;;;;4.65;2.72;;;;;25.00;100923.00;;;;5003412;28;20224;-80
2023/07/16 07:23:39;;;;;;;4.35;2.65;;;;;25.00;100924.00;;;;4999403;28;20205;-79
2023/07/16 07:26:08;;;;;;;4.43;2.55;;;;;25.10;100928.00;;;;5004054;28;20699;-79
2023/07/16 07:28:35;;;;;;;6.72;3.40;;;;;25.10;100933.00;;;;5003486;28;20613;-80
2023/07/16 07:31:03;;;;;;;8.18;2.78;;;;;25.10;100937.00;;;;5010406;28;20672;-81
2023/07/16 07:33:33;;;;;;;4.80;2.83;;;;;25.20;100932.00;;;;5009141;28;20225;-82
2023/07/16 07:36:00;;;;;;;5.57;3.10;;;;;25.20;100937.00;;;;5009484;28;20204;-81
2023/07/16 07:38:28;;;;;;;3.90;2.75;;;;;25.20;100927.00;;;;5008025;28;20216;-81
2023/07/16 07:40:55;;;;;;;6.85;3.35;;;;;25.20;100939.00;;;;5008453;28;20192;-79
2023/07/16 07:43:23;;;;;;;6.20;3.80;;;;;25.30;100924.00;;;;5008226;28;20208;-81
2023/07/16 07:45:50;;;;;;;7.05;3.63;;;;;25.30;100934.00;;;;5009108;28;20208;-80
2023/07/16 07:48:17;;;;;;;7.80;3.80;;;;;25.30;100944.00;;;;5005643;28;20202;-81
2023/07/16 07:50:47;;;;;;;3.45;2.70;;;;;25.30;100949.00;;;;4996700;28;20267;-81
2023/07/16 07:53:17;;;;;;;4.97;3.08;;;;;25.40;100937.00;;;;5006238;28;20601;-81
2023/07/16 07:55:45;;;;;;;7.35;3.28;;;;;25.40;100938.00;;;;5009149;28;20201;-81
2023/07/16 07:58:16;;;;;;;5.63;3.22;;;;;25.40;100940.00;;;;5008929;28;20197;-81
2023/07/16 08:00:43;;;;;;;11.65;3.65;;;;;25.40;100933.00;;;;5008931;28;20229;-80
2023/07/16 08:03:11;;;;;;;7.47;3.20;;;;;25.40;100952.00;;;;5007031;28;20255;-80
2023/07/16 08:05:38;;;;;;;7.30;3.30;;;;;25.40;100948.00;;;;5007573;28;20200;-81
2023/07/16 08:08:07;;;;;;;5.43;3.30;;;;;25.40;100946.00;;;;5008814;28;20212;-82
2023/07/16 08:10:34;;;;;;;4.63;3.17;;;;;25.40;100949.00;;;;5007454;28;20200;-81
2023/07/16 08:13:01;;;;;;;4.50;2.88;;;;;25.40;100958.00;;;;5007632;28;20236;-82
2023/07/16 08:15:29;;;;;;;4.70;2.78;;;;;25.40;100963.00;;;;5016225;28;20220;-81
2023/07/16 08:17:59;;;;;;;5.95;2.65;;;;;25.40;100963.00;;;;5011158;28;20197;-79
2023/07/16 08:20:26;;;;;;;6.68;3.05;;;;;25.40;100982.00;;;;5007608;28;20205;-80
2023/07/16 08:22:53;;;;;;;6.00;3.42;;;;;25.40;100971.00;;;;5007590;28;20223;-80
2023/07/16 08:25:22;;;;;;;5.07;3.65;;;;;25.40;100973.00;;;;5005480;28;20288;-80
2023/07/16 08:27:49;;;;;;;4.10;2.88;;;;;25.40;100974.00;;;;5005991;28;20197;-84
2023/07/16 08:30:17;;;;;;;5.25;2.97;;;;;25.30;100977.00;;;;5006142;28;20201;-81
2023/07/16 08:32:44;;;;;;;5.03;3.03;;;;;25.30;100986.00;;;;5002774;28;20207;-82
2023/07/16 08:35:16;;;;;;;7.43;2.97;;;;;25.30;100985.00;;;;4994438;28;20193;-84
2023/07/16 08:37:43;;;;;;;7.22;3.47;;;;;25.30;100987.00;;;;4992261;28;20201;-82
2023/07/16 08:40:12;;;;;;;6.22;2.72;;;;;25.30;100992.00;;;;5012727;28;20601;-79
2023/07/16 08:42:41;;;;;;;3.78;2.63;;;;;25.20;100990.00;;;;5010094;28;20208;-84
2023/07/16 08:45:11;;;;;;;4.88;3.10;;;;;25.20;100998.00;;;;5006185;28;20197;-80
2023/07/16 08:47:40;;;;;;;4.07;2.45;;;;;25.20;100993.00;;;;5009470;28;20193;-83
2023/07/16 08:50:08;;;;;;;4.78;2.90;;;;;25.20;100995.00;;;;5008567;28;20729;-80
2023/07/16 08:52:35;;;;;;;7.82;3.60;;;;;25.20;100997.00;;;;5001507;28;20563;-80
2023/07/16 08:55:02;;;;;;;4.00;2.45;;;;;25.20;100997.00;;;;4995265;28;20205;-79
2023/07/16 08:57:30;;;;;;;4.35;3.30;;;;;25.20;101007.00;;;;5008215;28;20209;-79
2023/07/16 09:00:00;;;;;;;5.40;2.97;;;;;25.20;101002.00;;;;5009421;28;20229;-79
2023/07/16 09:02:28;;;;;;;8.93;3.15;;;;;25.20;101006.00;;;;5012294;28;20196;-78
2023/07/16 09:04:56;;;;;;;6.57;3.10;;;;;25.20;101011.00;;;;5008355;28;20243;-80
2023/07/16 09:07:23;;;;;;;5.90;2.72;;;;;25.30;101019.00;;;;5000233;28;20219;-80
2023/07/16 09:09:58;;;;;;;5.95;3.05;;;;;25.20;101009.00;;;;5008503;28;20204;-79
2023/07/16 09:12:26;;;;;;;5.97;3.33;;;;;25.30;101024.00;;;;5003682;28;20275;-80
2023/07/16 09:14:54;;;;;;;6.00;3.30;;;;;25.30;101026.00;;;;4998873;28;20220;-80
2023/07/16 09:17:23;;;;;;;7.22;2.97;;;;;25.40;101023.00;;;;5008431;28;20292;-79
2023/07/16 09:19:51;;;;;;;6.05;3.67;;;;;25.40;101032.00;;;;5010772;28;20209;-79
2023/07/16 09:22:19;;;;;;;4.32;2.90;;;;;25.40;101033.00;;;;5010621;28;20590;-79
2023/07/16 09:24:47;;;;;;;4.47;3.22;;;;;25.40;101024.00;;;;5009521;28;20204;-78
2023/07/16 09:27:14;;;;;;;6.82;3.28;;;;;25.50;101020.00;;;;5010895;28;20892;-81
2023/07/16 09:29:42;;;;;;;7.50;3.35;;;;;25.50;101014.00;;;;5012911;28;20228;-78
2023/07/16 09:32:09;;;;;;;5.50;2.78;;;;;25.70;101018.00;;;;4998710;28;20205;-79
2023/07/16 09:34:38;;;;;;;7.47;2.90;;;;;25.80;101016.00;;;;5010562;28;20253;-80
2023/07/16 09:37:06;;;;;;;3.38;2.20;;;;;25.90;101024.00;;;;4993263;28;20213;-80
2023/07/16 09:39:35;;;;;;;10.80;3.85;;;;;26.00;101032.00;;;;5004177;28;20260;-79
2023/07/16 09:42:03;;;;;;;4.63;3.10;;;;;26.00;101035.00;;;;5000962;28;20236;-80
2023/07/16 09:44:31;;;;;;;3.80;2.67;;;;;26.00;101038.00;;;;5003672;28;20918;-79
2023/07/16 09:46:58;;;;;;;5.03;2.80;;;;;26.10;101028.00;;;;4998213;28;20300;-80
2023/07/16 09:49:28;;;;;;;4.95;2.78;;;;;26.10;101036.00;;;;4999195;28;20208;-80
2023/07/16 09:51:58;;;;;;;7.90;3.13;;;;;26.10;101039.00;;;;5010847;28;20749;-79
2023/07/16 09:54:28;;;;;;;4.05;2.58;;;;;26.10;101052.00;;;;5004908;28;20228;-80
2023/07/16 09:56:59;;;;;;;4.70;2.30;;;;;26.10;101059.00;;;;5002483;28;20793;-79
2023/07/16 09:59:31;;;;;;;4.95;2.80;;;;;26.10;101055.00;;;;4997120;28;20771;-79
2023/07/16 10:01:58;;;;;;;6.25;2.97;;;;;26.10;101057.00;;;;5001412;28;20697;-79
2023/07/16 10:04:26;;;;;;;4.40;2.72;;;;;26.10;101055.00;;;;5003419;28;20209;-79
2023/07/16 10:06:55;;;;;;;6.40;3.28;;;;;26.10;101051.00;;;;5003656;28;20244;-79
2023/07/16 10:09:38;;;;;;;4.28;3.00;;;;;26.00;101061.00;;;;4999807;28;20726;-79
2023/07/16 10:12:16;;;;;;;6.93;3.00;;;;;26.00;101066.00;;;;5000022;28;20205;-77
2023/07/16 10:14:45;;;;;;;6.47;2.65;;;;;26.20;101063.00;;;;5000224;28;20267;-78
2023/07/16 10:17:17;;;;;;;4.53;2.92;;;;;26.20;101063.00;;;;5002929;28;20201;-78
2023/07/16 10:19:58;;;;;;;9.18;2.80;;;;;26.30;101077.00;;;;5004294;28;20201;-78
2023/07/16 10:22:36;;;;;;;7.32;3.13;;;;;26.30;101073.00;;;;5002887;28;20284;-78
2023/07/16 10:25:09;;;;;;;8.00;3.00;;;;;26.40;101070.00;;;;5009966;28;20200;-80
2023/07/16 10:27:36;;;;;;;6.30;3.22;;;;;26.40;101081.00;;;;5004370;28;20201;-78
2023/07/16 10:30:06;;;;;;;4.13;3.03;;;;;26.40;101084.00;;;;5006897;28;20201;-81
2023/07/16 10:32:34;;;;;;;7.03;2.70;;;;;26.40;101084.00;;;;4998526;28;20202;-77
2023/07/16 10:35:03;;;;;;;3.17;2.40;;;;;26.40;101091.00;;;;5000244;28;20232;-79
2023/07/16 10:37:30;;;;;;;5.22;2.83;;;;;26.40;101095.00;;;;5004494;28;20209;-77
2023/07/16 10:39:59;;;;;;;4.00;2.65;;;;;26.30;101107.00;;;;5006659;28;20232;-79
2023/07/16 10:42:28;;;;;;;6.68;2.97;;;;;26.30;101100.00;;;;4998690;28;20198;-78
2023/07/16 10:44:58;;;;;;;6.65;2.78;;;;;26.30;101107.00;;;;5009601;28;20201;-78
2023/07/16 10:47:30;;;;;;;6.47;3.13;;;;;26.30;101107.00;;;;5008634;28;20260;-79
2023/07/16 10:49:57;;;;;;;5.68;2.78;;;;;26.20;101113.00;;;;5006237;28;20275;-79
2023/07/16 10:52:26;;;;;;;7.53;2.83;;;;;26.20;101106.00;;;;5009378;28;20197;-78
2023/07/16 10:54:55;;;;;;;4.80;2.75;;;;;26.20;101109.00;;;;5009160;28;20228;-78
2023/07/16 10:57:22;;;;;;;4.13;2.53;;;;;26.20;101109.00;;;;5006843;28;20295;-78
2023/07/16 10:59:52;;;;;;;5.80;3.10;;;;;26.20;101121.00;;;;5009025;28;20244;-78
2023/07/16 11:02:20;;;;;;;7.60;3.42;;;;;26.20;101124.00;;;;5005305;28;20209;-79
2023/07/16 11:04:49;;;;;;;5.68;3.42;;;;;26.20;101116.00;;;;4977897;28;20206;-78
2023/07/16 11:07:17;;;;;;;6.20;3.65;;;;;26.30;101116.00;;;;4990700;28;20205;-77
2023/07/16 11:09:45;;;;;;;4.93;2.85;;;;;26.40;101132.00;;;;4992234;28;20232;-78
2023/07/16 11:12:14;;;;;;;6.13;2.70;;;;;26.40;101127.00;;;;4990493;28;20540;-78
2023/07/16 11:14:45;;;;;;;4.82;2.53;;;;;26.40;101123.00;;;;4998792;28;20232;-78
2023/07/16 11:17:15;;;;;;;3.00;2.22;;;;;26.40;101124.00;;;;4990288;28;20201;-78
2023/07/16 11:19:47;;;;;;;5.72;2.58;;;;;26.50;101127.00;;;;5002767;28;20206;-78
2023/07/16 11:22:14;;;;;;;4.90;3.00;;;;;26.50;101127.00;;;;4992956;28;20203;-79
2023/07/16 11:24:43;;;;;;;3.65;2.30;;;;;26.60;101141.00;;;;5010571;28;20200;-78
2023/07/16 11:27:18;;;;;;;4.68;2.17;;;;;26.50;101131.00;;;;5005760;28;20205;-79
2023/07/16 11:29:48;;;;;;;4.43;2.60;;;;;26.50;101147.00;;;;5009522;28;20204;-79
2023/07/16 11:32:28;;;;;;;4.25;2.35;;;;;26.50;101148.00;;;;5009854;28;20205;-79
2023/07/16 11:34:56;;;;;;;5.47;2.55;;;;;26.60;101146.00;;;;4992028;28;20235;-79
2023/07/16 11:37:25;;;;;;;3.80;2.22;;;;;26.50;101157.00;;;;4981461;28;20231;-80
2023/07/16 11:39:55;;;;;;;5.55;2.72;;;;;26.50;101149.00;;;;4989712;28;20201;-80
2023/07/16 11:42:30;;;;;;;3.83;2.75;;;;;26.50;101167.00;;;;4990205;28;20617;-79
2023/07/16 11:44:59;;;;;;;5.38;2.70;;;;;26.50;101151.00;;;;4997008;28;20199;-78
2023/07/16 11:47:28;;;;;;;3.72;1.85;;;;;26.60;101161.00;;;;5012107;28;20201;-79
2023/07/16 11:49:56;;;;;;;2.85;1.60;;;;;26.60;101172.00;;;;5005485;28;20205;-78
2023/07/16 11:52:26;;;;;;;4.93;1.95;;;;;26.70;101181.00;;;;5011957;28;20211;-79
2023/07/16 11:54:54;;;;;;;4.93;1.83;;;;;26.70;101166.00;;;;4998577;28;20232;-77
2023/07/16 11:57:21;;;;;;;3.80;1.92;;;;;26.80;101181.00;;;;4997134;28;20202;-76
2023/07/16 11:59:48;;;;;;;4.97;2.22;;;;;26.90;101173.00;;;;5002048;28;20245;-76
2023/07/16 12:02:16;;;;;;;2.67;1.65;;;;;26.90;101171.00;;;;4993503;28;20210;-77
2023/07/16 12:04:44;;;;;;;3.45;1.88;;;;;26.90;101164.00;;;;4990331;28;20214;-78
2023/07/16 12:07:11;;;;;;;1.92;0.95;;;;;26.90;101168.00;;;;4985676;28;20198;-77
2023/07/16 12:09:39;;;;;;;3.58;1.20;;;;;26.90;101174.00;;;;4979238;28;20209;-78
2023/07/16 12:12:07;;;;;;;1.92;1.30;;;;;26.90;101164.00;;;;4992922;28;20212;-78
2023/07/16 12:14:35;;;;;;;2.97;1.30;;;;;26.90;101153.00;;;;4983435;28;20249;-79